Time;durP1;ratioP1;P1;durP2;ratioP2;P2;SDS_P1;SDS_P2;PMS_P1;PMS_P2;Temp;Humidity;BMP_temperature;BMP_pressure;BME280_temperature;BME280_humidity;BME280_pressure;Samples;Min_cycle;Max_cycle;Signal;HPM_P1;HPM_P2
2022/10/16 00:00:57;;;;;;;2.57;1.20;;;15.40;99.90;;;;;;4861879;29;20192;-87
2022/10/16 00:03:23;;;;;;;2.13;1.37;;;15.40;99.90;;;;;;4861707;29;20210;-87
2022/10/16 00:05:49;;;;;;;2.00;1.20;;;15.30;99.90;;;;;;4861825;29;20191;-87
2022/10/16 00:08:14;;;;;;;2.93;1.30;;;15.30;99.90;;;;;;4861938;29;20298;-87
2022/10/16 00:10:40;;;;;;;1.50;1.20;;;15.30;99.90;;;;;;4869488;29;20184;-87
2022/10/16 00:13:12;;;;;;;3.63;1.47;;;15.30;99.90;;;;;;4864351;29;20210;-87
2022/10/16 00:15:39;;;;;;;4.23;1.40;;;15.30;99.90;;;;;;4864523;29;20287;-87
2022/10/16 00:18:05;;;;;;;2.37;1.30;;;15.30;99.90;;;;;;4880114;29;20194;-87
2022/10/16 00:20:34;;;;;;;4.83;1.90;;;15.20;99.90;;;;;;4864647;29;20279;-87
2022/10/16 00:23:00;;;;;;;2.60;1.03;;;15.20;99.90;;;;;;4880035;29;20196;-87
2022/10/16 00:25:26;;;;;;;2.60;1.17;;;15.10;99.90;;;;;;4864854;29;20194;-87
2022/10/16 00:27:52;;;;;;;1.50;1.30;;;15.00;99.90;;;;;;4864179;29;20705;-87
2022/10/16 00:30:18;;;;;;;1.03;1.00;;;15.00;99.90;;;;;;4864457;29;20267;-87
2022/10/16 00:32:44;;;;;;;2.40;1.10;;;15.00;99.90;;;;;;4864611;29;20227;-87
2022/10/16 00:35:09;;;;;;;2.43;1.60;;;14.90;99.90;;;;;;4862822;29;20252;-87
2022/10/16 00:37:35;;;;;;;3.90;2.20;;;14.90;99.90;;;;;;4860907;29;20189;-87
2022/10/16 00:40:01;;;;;;;5.97;2.90;;;14.80;99.90;;;;;;4861361;29;20181;-87
2022/10/16 00:42:27;;;;;;;3.27;2.40;;;14.80;99.90;;;;;;4861099;29;20208;-87
2022/10/16 00:44:57;;;;;;;2.63;2.23;;;14.80;99.90;;;;;;4861085;29;20216;-87
2022/10/16 00:47:23;;;;;;;2.73;2.10;;;14.80;99.90;;;;;;4870489;29;20184;-87
2022/10/16 00:49:53;;;;;;;3.97;2.07;;;14.80;99.90;;;;;;4864120;29;20232;-87
2022/10/16 00:52:19;;;;;;;3.53;2.20;;;14.70;99.90;;;;;;4863841;29;20207;-87
2022/10/16 00:54:46;;;;;;;2.37;2.17;;;14.80;99.90;;;;;;4854413;29;20185;-87
2022/10/16 00:57:13;;;;;;;2.53;2.10;;;14.80;99.90;;;;;;4857133;29;20650;-87
2022/10/16 00:59:48;;;;;;;2.23;1.80;;;14.80;99.90;;;;;;4860599;29;20181;-87
2022/10/16 01:02:16;;;;;;;4.67;2.10;;;14.80;99.90;;;;;;4860786;29;20271;-87
2022/10/16 01:04:49;;;;;;;3.30;1.83;;;14.90;99.90;;;;;;4860730;29;20192;-87
2022/10/16 01:07:23;;;;;;;4.27;2.00;;;14.90;99.90;;;;;;4860914;29;20430;-87
2022/10/16 01:10:32;;;;;;;3.63;1.90;;;14.90;99.90;;;;;;4860657;29;20180;-87
2022/10/16 01:13:04;;;;;;;4.33;1.90;;;14.90;99.90;;;;;;4860478;29;20213;-87
2022/10/16 01:15:47;;;;;;;5.47;2.03;;;14.90;99.90;;;;;;4860709;29;20212;-87
2022/10/16 01:18:19;;;;;;;2.70;1.90;;;14.90;99.90;;;;;;4860345;29;20221;-87
2022/10/16 01:21:03;;;;;;;2.93;1.83;;;14.90;99.90;;;;;;4860830;29;20200;-87
2022/10/16 01:23:50;;;;;;;3.10;1.90;;;14.90;99.90;;;;;;4860600;29;20180;-87
2022/10/16 01:26:43;;;;;;;4.57;2.10;;;14.90;99.90;;;;;;4860573;29;20184;-87
2022/10/16 01:29:22;;;;;;;3.17;2.20;;;14.80;99.90;;;;;;4860598;29;20225;-87
2022/10/16 01:31:53;;;;;;;3.87;2.20;;;14.80;99.90;;;;;;4860048;29;20298;-87
2022/10/16 01:34:28;;;;;;;3.50;2.10;;;14.70;99.90;;;;;;4860298;29;20533;-87
2022/10/16 01:36:59;;;;;;;4.07;2.17;;;14.70;99.90;;;;;;4859958;29;20196;-87
2022/10/16 01:39:30;;;;;;;2.87;2.40;;;14.70;99.90;;;;;;4860345;29;20176;-87
2022/10/16 01:42:06;;;;;;;4.40;2.30;;;14.70;99.90;;;;;;4859981;29;20228;-87
2022/10/16 01:44:34;;;;;;;4.90;2.27;;;14.60;99.90;;;;;;4860059;29;20168;-87
2022/10/16 01:47:01;;;;;;;2.90;2.27;;;14.50;99.90;;;;;;4859908;29;20184;-87
2022/10/16 01:49:32;;;;;;;4.07;2.47;;;14.50;99.90;;;;;;4859879;29;20184;-87
2022/10/16 01:52:00;;;;;;;3.13;2.47;;;14.50;99.90;;;;;;4859817;29;20208;-87
2022/10/16 01:54:31;;;;;;;2.80;2.30;;;14.50;99.90;;;;;;4859799;29;20197;-87
2022/10/16 01:56:58;;;;;;;4.17;2.10;;;14.50;99.90;;;;;;4859571;29;20213;-87
2022/10/16 01:59:29;;;;;;;4.47;2.37;;;14.50;99.90;;;;;;4860177;29;20195;-87
2022/10/16 02:02:03;;;;;;;3.00;2.10;;;14.50;99.90;;;;;;4859233;29;20196;-87
2022/10/16 02:04:34;;;;;;;2.30;2.10;;;14.50;99.90;;;;;;4859924;29;20172;-87
2022/10/16 02:07:00;;;;;;;3.40;2.20;;;14.60;99.90;;;;;;4859322;29;20277;-87
2022/10/16 02:09:26;;;;;;;5.37;2.20;;;14.60;99.90;;;;;;4859433;29;20218;-87
2022/10/16 02:11:56;;;;;;;2.53;2.03;;;14.60;99.90;;;;;;4859609;29;20207;-87
2022/10/16 02:14:24;;;;;;;3.10;2.10;;;14.60;99.90;;;;;;4859597;29;20189;-87
2022/10/16 02:16:50;;;;;;;4.53;2.37;;;14.60;99.90;;;;;;4859301;29;20223;-87
2022/10/16 02:19:19;;;;;;;4.27;2.07;;;14.60;99.90;;;;;;4859564;29;20185;-87
2022/10/16 02:21:56;;;;;;;2.37;2.13;;;14.50;99.90;;;;;;4859312;29;20228;-87
2022/10/16 02:24:38;;;;;;;3.90;2.27;;;14.50;99.90;;;;;;4859588;29;20181;-87
2022/10/16 02:27:16;;;;;;;2.20;2.00;;;14.50;99.90;;;;;;4859345;29;20587;-87
2022/10/16 02:29:50;;;;;;;2.40;2.13;;;14.50;99.90;;;;;;4859481;29;20184;-87
2022/10/16 02:32:20;;;;;;;4.97;2.40;;;14.50;99.90;;;;;;4859111;29;20228;-87
2022/10/16 02:34:48;;;;;;;5.13;2.13;;;14.50;99.90;;;;;;4858382;29;20188;-86
2022/10/16 02:37:16;;;;;;;3.00;2.17;;;14.50;99.90;;;;;;4858330;29;20212;-87
2022/10/16 02:39:42;;;;;;;4.03;2.00;;;14.50;99.90;;;;;;4858924;29;20202;-87
2022/10/16 02:42:12;;;;;;;4.50;2.13;;;14.50;99.90;;;;;;4858259;29;20208;-87
2022/10/16 02:44:39;;;;;;;3.53;2.27;;;14.50;99.90;;;;;;4858613;29;20185;-87
2022/10/16 02:47:05;;;;;;;3.20;2.30;;;14.40;99.90;;;;;;4858140;29;20188;-87
2022/10/16 02:49:31;;;;;;;5.87;2.30;;;14.40;99.90;;;;;;4858604;29;20188;-87
2022/10/16 02:51:57;;;;;;;5.67;2.53;;;14.40;99.90;;;;;;4858438;29;20204;-87
2022/10/16 02:54:23;;;;;;;3.77;2.10;;;14.40;99.90;;;;;;4858800;29;20191;-87
2022/10/16 02:56:49;;;;;;;3.60;2.03;;;14.40;99.90;;;;;;4858335;29;20220;-87
2022/10/16 02:59:16;;;;;;;6.80;2.40;;;14.40;99.90;;;;;;4858280;29;20199;-87
2022/10/16 03:01:42;;;;;;;3.47;2.23;;;14.40;99.90;;;;;;4858297;29;20212;-87
2022/10/16 03:04:07;;;;;;;2.40;2.10;;;14.40;99.90;;;;;;4858317;29;20203;-87
2022/10/16 03:06:34;;;;;;;2.70;2.40;;;14.30;99.90;;;;;;4858122;29;20189;-87
2022/10/16 03:09:00;;;;;;;3.07;2.10;;;14.30;99.90;;;;;;4858130;29;20203;-87
2022/10/16 03:11:31;;;;;;;2.20;2.00;;;14.30;99.90;;;;;;4857731;29;20208;-87
2022/10/16 03:13:57;;;;;;;2.07;1.87;;;14.30;99.90;;;;;;4860401;29;20181;-87
2022/10/16 03:16:23;;;;;;;4.73;2.20;;;14.20;99.90;;;;;;4861262;29;20236;-87
2022/10/16 03:18:49;;;;;;;3.97;2.20;;;14.20;99.90;;;;;;4876801;29;20538;-87
2022/10/16 03:21:16;;;;;;;3.67;2.30;;;14.10;99.90;;;;;;4861240;29;20197;-87
2022/10/16 03:23:42;;;;;;;3.17;2.20;;;14.10;99.90;;;;;;4861363;29;20181;-87
2022/10/16 03:26:08;;;;;;;2.80;2.03;;;14.10;99.90;;;;;;4861232;29;20193;-87
2022/10/16 03:28:34;;;;;;;3.83;2.40;;;14.10;99.90;;;;;;4861243;29;20191;-87
2022/10/16 03:31:00;;;;;;;2.40;2.20;;;14.10;99.90;;;;;;4861417;29;20188;-87
2022/10/16 03:33:25;;;;;;;2.60;2.07;;;14.10;99.90;;;;;;4857875;29;178273;-87
2022/10/16 03:35:53;;;;;;;4.63;2.27;;;14.10;99.90;;;;;;4862169;29;20324;-87
2022/10/16 03:38:19;;;;;;;2.97;2.60;;;14.10;99.90;;;;;;4862107;29;20203;-87
2022/10/16 03:40:45;;;;;;;3.47;2.10;;;14.10;99.90;;;;;;4862653;29;20177;-87
2022/10/16 03:43:11;;;;;;;4.73;2.33;;;14.10;99.90;;;;;;4862180;29;20200;-87
2022/10/16 03:45:37;;;;;;;4.03;2.30;;;14.20;99.90;;;;;;4862188;29;20184;-87
2022/10/16 03:48:03;;;;;;;3.70;2.60;;;14.20;99.90;;;;;;4862266;29;20180;-87
2022/10/16 03:50:29;;;;;;;4.37;2.40;;;14.10;99.90;;;;;;4862335;29;20189;-87
2022/10/16 03:52:55;;;;;;;3.50;2.10;;;14.10;99.90;;;;;;4862079;29;20208;-87
2022/10/16 03:55:21;;;;;;;4.00;2.30;;;14.10;99.90;;;;;;4862210;29;20240;-87
2022/10/16 03:57:54;;;;;;;4.13;2.30;;;14.10;99.90;;;;;;4861866;29;20215;-86
2022/10/16 04:00:30;;;;;;;3.30;1.80;;;14.10;99.90;;;;;;4861326;29;20251;-87
2022/10/16 04:03:00;;;;;;;4.53;2.20;;;14.10;99.90;;;;;;4861960;29;20216;-87
2022/10/16 04:05:26;;;;;;;3.80;2.40;;;14.10;99.90;;;;;;4867506;29;20188;-87
2022/10/16 04:07:52;;;;;;;5.27;2.37;;;14.10;99.90;;;;;;4861562;29;20189;-87
2022/10/16 04:10:18;;;;;;;4.03;2.37;;;14.10;99.90;;;;;;4861664;29;20185;-87
2022/10/16 04:12:45;;;;;;;2.73;2.10;;;14.10;99.90;;;;;;4862097;29;20208;-87
2022/10/16 04:15:11;;;;;;;3.40;2.23;;;14.10;99.90;;;;;;4861457;29;20208;-86
2022/10/16 04:17:36;;;;;;;2.57;2.10;;;14.10;99.90;;;;;;4861535;29;20191;-87
2022/10/16 04:20:03;;;;;;;2.60;2.20;;;14.10;99.90;;;;;;4861647;29;20185;-87
2022/10/16 04:22:29;;;;;;;4.27;2.00;;;14.20;99.90;;;;;;4861565;29;20208;-87
2022/10/16 04:24:55;;;;;;;3.33;2.10;;;14.10;99.90;;;;;;4873142;29;20208;-87
2022/10/16 04:27:21;;;;;;;3.80;2.07;;;14.10;99.90;;;;;;4864560;29;20186;-87
2022/10/16 04:29:46;;;;;;;3.33;2.10;;;14.10;99.90;;;;;;4864876;29;20271;-87
2022/10/16 04:32:12;;;;;;;2.70;1.80;;;14.10;99.90;;;;;;4864524;29;20220;-87
2022/10/16 04:34:39;;;;;;;4.30;2.00;;;14.10;99.90;;;;;;4863871;29;20183;-87
2022/10/16 04:37:06;;;;;;;4.00;2.23;;;14.10;99.90;;;;;;4879556;29;20219;-87
2022/10/16 04:39:32;;;;;;;3.70;2.13;;;14.10;99.90;;;;;;4871909;29;20209;-87
2022/10/16 04:41:58;;;;;;;7.40;2.37;;;14.10;99.90;;;;;;4864193;29;20200;-87
2022/10/16 04:44:23;;;;;;;5.67;2.30;;;14.00;99.90;;;;;;4880022;29;20183;-87
2022/10/16 04:46:52;;;;;;;4.53;2.03;;;14.00;99.90;;;;;;4863970;29;20645;-87
2022/10/16 04:49:18;;;;;;;2.43;1.90;;;14.00;99.90;;;;;;4863964;29;20188;-87
2022/10/16 04:51:44;;;;;;;3.83;2.10;;;14.00;99.90;;;;;;4864118;29;20216;-87
2022/10/16 04:54:10;;;;;;;4.00;2.00;;;14.00;99.90;;;;;;4864385;29;20188;-87
2022/10/16 04:56:42;;;;;;;4.87;2.00;;;14.00;99.90;;;;;;4864173;29;20219;-86
2022/10/16 04:59:09;;;;;;;3.20;2.10;;;14.00;99.90;;;;;;4864045;29;20180;-87
2022/10/16 05:01:39;;;;;;;4.47;2.00;;;13.90;99.90;;;;;;4863144;29;20200;-87
2022/10/16 05:04:04;;;;;;;3.93;2.33;;;13.90;99.90;;;;;;4879615;29;20160;-87
2022/10/16 05:06:30;;;;;;;2.60;1.77;;;13.80;99.90;;;;;;4863955;29;20260;-86
2022/10/16 05:08:56;;;;;;;3.73;2.10;;;13.80;99.90;;;;;;4854551;29;20269;-87
2022/10/16 05:11:22;;;;;;;2.97;1.90;;;13.80;99.90;;;;;;4860260;29;20184;-87
2022/10/16 05:13:48;;;;;;;3.30;2.37;;;13.80;99.90;;;;;;4860651;29;20193;-87
2022/10/16 05:16:14;;;;;;;3.20;2.30;;;13.80;99.90;;;;;;4860769;29;20216;-87
2022/10/16 05:18:39;;;;;;;6.10;2.17;;;13.80;99.90;;;;;;4845055;29;20188;-87
2022/10/16 05:21:05;;;;;;;5.20;2.30;;;13.90;99.90;;;;;;4860387;29;20207;-87
2022/10/16 05:23:32;;;;;;;2.57;2.07;;;13.80;99.90;;;;;;4860736;29;20184;-87
2022/10/16 05:25:59;;;;;;;3.07;2.30;;;13.80;99.90;;;;;;4860459;29;20219;-87
2022/10/16 05:28:26;;;;;;;3.77;2.20;;;13.80;99.90;;;;;;4860057;29;20185;-87
2022/10/16 05:30:52;;;;;;;7.00;2.23;;;13.70;99.90;;;;;;4860375;29;20185;-87
2022/10/16 05:33:20;;;;;;;5.13;2.33;;;13.70;99.90;;;;;;4860200;29;20228;-87
2022/10/16 05:35:46;;;;;;;4.57;2.30;;;13.70;99.90;;;;;;4859361;29;20212;-87
2022/10/16 05:38:12;;;;;;;2.73;2.10;;;13.70;99.90;;;;;;4859930;29;20192;-87
2022/10/16 05:40:39;;;;;;;2.57;2.30;;;13.60;99.90;;;;;;4860321;29;20188;-87
2022/10/16 05:43:04;;;;;;;3.30;2.20;;;13.60;99.90;;;;;;4860205;29;20243;-87
2022/10/16 05:45:30;;;;;;;3.50;2.10;;;13.60;99.90;;;;;;4860830;29;20220;-87
2022/10/16 05:47:56;;;;;;;2.17;1.97;;;13.60;99.90;;;;;;4873978;29;20252;-87
2022/10/16 05:50:22;;;;;;;3.90;2.03;;;13.50;99.90;;;;;;4863378;29;20195;-87
2022/10/16 05:52:48;;;;;;;1.70;1.60;;;13.50;99.90;;;;;;4878491;29;20222;-87
2022/10/16 05:55:14;;;;;;;3.97;1.80;;;13.50;99.90;;;;;;4862967;29;20187;-87
2022/10/16 05:57:54;;;;;;;6.37;1.87;;;13.50;99.90;;;;;;4862610;29;20240;-87
2022/10/16 06:00:20;;;;;;;2.27;2.00;;;13.50;99.90;;;;;;4863010;29;20191;-87
2022/10/16 06:02:45;;;;;;;3.93;2.30;;;13.50;99.90;;;;;;4861286;29;20208;-87
2022/10/16 06:05:11;;;;;;;4.20;2.10;;;13.60;99.90;;;;;;4863113;29;20180;-87
2022/10/16 06:07:37;;;;;;;5.27;2.60;;;13.60;99.90;;;;;;4862950;29;20262;-88
2022/10/16 06:10:04;;;;;;;4.47;2.23;;;13.60;99.90;;;;;;4845212;29;20185;-87
2022/10/16 06:12:30;;;;;;;2.67;2.10;;;13.60;99.90;;;;;;4859376;29;20196;-87
2022/10/16 06:14:56;;;;;;;2.30;2.10;;;13.60;99.90;;;;;;4859585;29;20188;-87
2022/10/16 06:17:22;;;;;;;2.60;2.17;;;13.70;99.90;;;;;;4871890;29;20279;-87
2022/10/16 06:19:48;;;;;;;6.67;2.20;;;13.70;99.90;;;;;;4862651;29;20185;-87
2022/10/16 06:22:14;;;;;;;2.87;2.27;;;13.70;99.90;;;;;;4878196;29;20254;-87
2022/10/16 06:24:40;;;;;;;3.73;2.40;;;13.70;99.90;;;;;;4862852;29;20180;-87
2022/10/16 06:27:06;;;;;;;5.13;2.10;;;13.70;99.90;;;;;;4878003;29;20187;-87
2022/10/16 06:29:31;;;;;;;3.57;2.30;;;13.80;99.90;;;;;;4862469;29;20184;-87
2022/10/16 06:31:57;;;;;;;2.63;2.17;;;13.80;99.90;;;;;;4859406;29;20212;-87
2022/10/16 06:34:23;;;;;;;3.60;2.10;;;13.80;99.90;;;;;;4862291;29;20219;-87
2022/10/16 06:36:49;;;;;;;4.57;2.20;;;13.90;99.90;;;;;;4877405;29;20203;-87
2022/10/16 06:39:15;;;;;;;4.03;2.07;;;13.90;99.90;;;;;;4862413;29;20188;-87
2022/10/16 06:41:41;;;;;;;6.67;2.00;;;14.00;99.90;;;;;;4862872;29;20203;-87
2022/10/16 06:44:15;;;;;;;2.47;1.63;;;14.00;99.90;;;;;;4878044;29;20216;-87
2022/10/16 06:46:51;;;;;;;2.10;1.90;;;14.10;99.90;;;;;;4877117;29;20184;-87
2022/10/16 06:49:21;;;;;;;3.30;2.20;;;14.10;99.90;;;;;;4868110;29;20178;-87
2022/10/16 06:51:47;;;;;;;4.50;2.00;;;14.10;99.90;;;;;;4890606;29;20219;-87
2022/10/16 06:54:14;;;;;;;4.83;2.50;;;14.10;99.90;;;;;;4843879;29;20181;-87
2022/10/16 06:56:40;;;;;;;3.53;2.20;;;14.10;99.90;;;;;;4843744;29;20213;-87
2022/10/16 06:59:09;;;;;;;3.63;2.87;;;14.20;99.90;;;;;;4841528;29;20196;-89
2022/10/16 07:01:36;;;;;;;4.87;2.33;;;14.20;99.90;;;;;;4843348;29;20208;-88
2022/10/16 07:04:02;;;;;;;4.23;2.03;;;14.20;99.90;;;;;;4858500;29;20193;-87
2022/10/16 07:06:32;;;;;;;3.87;2.37;;;14.30;99.90;;;;;;4857695;29;20191;-86
2022/10/16 07:08:57;;;;;;;4.13;2.10;;;14.30;99.90;;;;;;4841443;29;20206;-86
2022/10/16 07:11:24;;;;;;;4.77;1.97;;;14.30;99.90;;;;;;4857688;29;20253;-87
2022/10/16 07:13:50;;;;;;;2.37;2.10;;;14.30;99.90;;;;;;4858755;29;20185;-86
2022/10/16 07:16:21;;;;;;;7.50;2.77;;;14.40;99.90;;;;;;4858806;29;20220;-87
2022/10/16 07:18:48;;;;;;;3.93;2.37;;;14.40;99.90;;;;;;4858830;29;20188;-87
2022/10/16 07:21:20;;;;;;;10.73;2.73;;;14.40;99.90;;;;;;4858882;29;20185;-87
2022/10/16 07:24:02;;;;;;;6.87;2.67;;;14.40;99.90;;;;;;4843771;29;20177;-87
2022/10/16 07:26:30;;;;;;;2.40;2.20;;;14.50;99.90;;;;;;4859134;29;20208;-87
2022/10/16 07:28:57;;;;;;;3.23;2.80;;;14.40;99.90;;;;;;4858976;29;20193;-87
2022/10/16 07:31:23;;;;;;;3.87;2.20;;;14.50;99.90;;;;;;4858633;29;20275;-87
2022/10/16 07:33:50;;;;;;;7.63;2.80;;;14.50;99.90;;;;;;4858781;29;20245;-87
2022/10/16 07:36:17;;;;;;;5.10;2.60;;;14.50;99.90;;;;;;4859090;29;21460;-87
2022/10/16 07:38:44;;;;;;;5.73;2.53;;;14.50;99.90;;;;;;4859049;29;20238;-87
2022/10/16 07:41:15;;;;;;;3.10;2.17;;;14.60;99.90;;;;;;4859162;29;20180;-86
2022/10/16 07:43:47;;;;;;;3.00;2.33;;;14.60;99.90;;;;;;4843568;29;20188;-87
2022/10/16 07:46:13;;;;;;;4.73;2.53;;;14.70;99.90;;;;;;4859445;29;20275;-87
2022/10/16 07:48:39;;;;;;;4.50;2.33;;;14.80;99.90;;;;;;4858796;29;20180;-87
2022/10/16 07:51:06;;;;;;;4.53;2.80;;;14.90;99.90;;;;;;4858693;29;20223;-87
2022/10/16 07:53:56;;;;;;;6.83;3.37;;;14.90;99.90;;;;;;4859921;29;20185;-86
2022/10/16 07:56:22;;;;;;;3.80;2.60;;;15.10;99.90;;;;;;4858966;29;20213;-87
2022/10/16 07:58:50;;;;;;;2.87;2.27;;;15.10;99.90;;;;;;4859128;29;20196;-87
2022/10/16 08:01:31;;;;;;;3.40;2.20;;;15.10;99.90;;;;;;4861447;29;20283;-87
2022/10/16 08:03:57;;;;;;;4.00;2.07;;;15.20;99.90;;;;;;4862758;29;20189;-87
2022/10/16 08:06:23;;;;;;;3.73;2.17;;;15.30;99.90;;;;;;4862333;29;20196;-87
2022/10/16 08:08:49;;;;;;;3.30;1.80;;;15.30;99.90;;;;;;4862181;29;20189;-87
2022/10/16 08:11:15;;;;;;;4.07;2.10;;;15.40;99.90;;;;;;4867929;29;20244;-87
2022/10/16 08:13:41;;;;;;;4.33;2.60;;;15.40;99.90;;;;;;4865091;29;20188;-87
2022/10/16 08:16:08;;;;;;;3.67;2.57;;;15.40;99.90;;;;;;4861784;29;20205;-86
2022/10/16 08:18:38;;;;;;;8.43;2.73;;;15.50;99.90;;;;;;4861624;29;20184;-87
2022/10/16 08:21:06;;;;;;;3.00;2.23;;;15.60;99.90;;;;;;4862078;29;20236;-82
2022/10/16 08:23:32;;;;;;;4.43;2.13;;;15.60;99.90;;;;;;4869072;29;20228;-83
2022/10/16 08:26:03;;;;;;;2.57;2.30;;;15.70;99.90;;;;;;4848593;29;20188;-83
2022/10/16 08:28:29;;;;;;;3.40;2.10;;;15.80;99.90;;;;;;4861386;29;20241;-82
2022/10/16 08:30:56;;;;;;;2.47;2.27;;;16.00;99.90;;;;;;4852537;29;20192;-83
2022/10/16 08:33:22;;;;;;;2.33;2.13;;;16.00;99.90;;;;;;4861075;29;20224;-83
2022/10/16 08:35:53;;;;;;;2.42;2.03;;;16.10;99.90;;;;;;4860638;29;20200;-83
2022/10/16 08:38:19;;;;;;;2.58;2.38;;;16.10;99.90;;;;;;4844616;29;20185;-83
2022/10/16 08:40:46;;;;;;;3.17;2.40;;;16.20;99.90;;;;;;4861519;29;20188;-83
2022/10/16 08:43:12;;;;;;;3.28;2.45;;;16.20;99.90;;;;;;4861133;29;20197;-82
2022/10/16 08:46:05;;;;;;;3.55;2.45;;;16.30;99.90;;;;;;4861215;29;20192;-88
2022/10/16 08:49:20;;;;;;;3.88;2.10;;;16.30;99.90;;;;;;4840658;29;20231;-84
2022/10/16 08:52:13;;;;;;;2.67;1.90;;;16.30;99.90;;;;;;4860516;29;20256;-92
2022/10/16 08:54:46;;;;;;;2.30;2.10;;;16.30;99.90;;;;;;4849478;29;20196;-92
2022/10/16 08:57:17;;;;;;;3.17;2.22;;;16.30;99.90;;;;;;4851597;29;20208;-95
2022/10/16 08:59:46;;;;;;;4.28;2.30;;;16.30;99.90;;;;;;4855391;29;20177;-93
2022/10/16 09:02:40;;;;;;;3.80;2.28;;;16.30;99.90;;;;;;4848622;29;20213;-92
2022/10/16 09:05:33;;;;;;;5.25;2.95;;;16.30;99.90;;;;;;4847588;29;20188;-81
2022/10/16 09:08:20;;;;;;;5.38;2.67;;;16.30;99.90;;;;;;4860787;29;20604;-81
2022/10/16 09:11:07;;;;;;;5.38;2.33;;;16.30;99.90;;;;;;4859787;29;20176;-85
2022/10/16 09:14:12;;;;;;;8.50;2.50;;;16.40;99.90;;;;;;4861183;29;20176;-82
2022/10/16 09:17:12;;;;;;;3.05;2.38;;;16.50;99.90;;;;;;4860757;29;20223;-86
2022/10/16 09:19:44;;;;;;;3.30;2.03;;;16.70;99.90;;;;;;4826833;29;20222;-86
2022/10/16 09:22:14;;;;;;;3.60;2.30;;;17.00;99.90;;;;;;4842542;29;20275;-86
2022/10/16 09:24:40;;;;;;;3.72;2.15;;;17.20;99.90;;;;;;4855370;29;20287;-86
2022/10/16 09:27:15;;;;;;;3.35;2.40;;;17.30;99.90;;;;;;4860834;29;20305;-86
2022/10/16 09:29:41;;;;;;;3.63;2.30;;;17.50;99.90;;;;;;4860882;29;20190;-86
2022/10/16 09:32:14;;;;;;;2.95;2.17;;;17.70;99.90;;;;;;4860601;29;20306;-86
2022/10/16 09:34:48;;;;;;;3.08;2.08;;;17.90;99.90;;;;;;4861257;29;20252;-86
2022/10/16 09:37:18;;;;;;;3.45;2.10;;;18.10;99.90;;;;;;4861423;29;20277;-86
2022/10/16 09:39:47;;;;;;;2.15;1.95;;;18.30;99.90;;;;;;4860343;29;20240;-86
2022/10/16 09:42:26;;;;;;;2.50;1.90;;;18.30;99.90;;;;;;4860627;29;20307;-86
2022/10/16 09:44:53;;;;;;;3.42;1.77;;;18.30;99.90;;;;;;4842087;29;20243;-86
2022/10/16 09:47:30;;;;;;;3.10;2.00;;;18.30;99.90;;;;;;4842059;29;20276;-87
2022/10/16 09:50:05;;;;;;;4.25;1.92;;;18.30;99.90;;;;;;4858108;29;20267;-86
2022/10/16 09:52:33;;;;;;;3.28;1.67;;;18.20;99.90;;;;;;4859853;29;20219;-86
2022/10/16 09:55:12;;;;;;;3.58;2.00;;;18.20;99.90;;;;;;4844781;29;20189;-86
2022/10/16 09:57:53;;;;;;;2.75;1.85;;;18.30;99.90;;;;;;4842401;29;20188;-87
2022/10/16 10:00:34;;;;;;;3.97;2.10;;;18.30;99.90;;;;;;4859739;29;20287;-86
2022/10/16 10:03:00;;;;;;;2.13;2.00;;;18.30;99.90;;;;;;4865528;29;20196;-86
2022/10/16 10:05:34;;;;;;;3.30;2.45;;;18.30;99.90;;;;;;4874606;29;20216;-86
2022/10/16 10:08:05;;;;;;;4.30;1.92;;;18.30;99.90;;;;;;4860270;29;20200;-85
2022/10/16 10:10:42;;;;;;;4.13;2.45;;;18.30;99.90;;;;;;4859573;29;20179;-86
2022/10/16 10:13:22;;;;;;;4.30;2.22;;;18.40;99.90;;;;;;4860135;29;20204;-86
2022/10/16 10:15:52;;;;;;;3.03;2.10;;;18.60;99.90;;;;;;4867618;29;20208;-86
2022/10/16 10:18:26;;;;;;;3.28;1.90;;;18.70;99.90;;;;;;4862748;29;20698;-86
2022/10/16 10:21:05;;;;;;;2.20;1.80;;;18.90;99.90;;;;;;4857806;29;20239;-82
2022/10/16 10:23:32;;;;;;;4.35;1.90;;;19.20;99.90;;;;;;4845037;29;20187;-82
2022/10/16 10:26:07;;;;;;;2.85;1.90;;;19.50;99.90;;;;;;4856657;29;20234;-83
2022/10/16 10:29:01;;;;;;;3.42;1.90;;;19.80;99.90;;;;;;4859287;29;20191;-87
2022/10/16 10:31:43;;;;;;;3.10;2.10;;;20.10;99.90;;;;;;4857177;29;20753;-87
2022/10/16 10:34:18;;;;;;;2.17;1.65;;;20.30;99.90;;;;;;4858673;29;20192;-87
2022/10/16 10:36:57;;;;;;;3.83;1.70;;;20.60;99.90;;;;;;4859000;29;20208;-87
2022/10/16 10:40:00;;;;;;;4.20;1.90;;;20.70;99.90;;;;;;4843077;29;20177;-87
2022/10/16 10:42:38;;;;;;;2.05;1.70;;;20.80;99.90;;;;;;4858512;29;20310;-87
2022/10/16 10:45:26;;;;;;;4.00;1.83;;;20.80;99.90;;;;;;4851245;29;20202;-87
2022/10/16 10:48:30;;;;;;;2.10;1.42;;;21.00;99.90;;;;;;4858354;29;20184;-88
2022/10/16 10:51:10;;;;;;;4.97;1.45;;;21.10;99.90;;;;;;4859047;29;20188;-87
2022/10/16 10:54:02;;;;;;;1.58;1.48;;;21.30;99.90;;;;;;4859292;29;20176;-89
2022/10/16 10:56:47;;;;;;;3.00;1.60;;;21.40;99.90;;;;;;4831876;29;20264;-78
2022/10/16 10:59:52;;;;;;;1.88;1.50;;;21.70;99.90;;;;;;4845401;29;20271;-88
2022/10/16 11:02:41;;;;;;;1.48;1.33;;;21.70;99.90;;;;;;4849367;29;20223;-88
2022/10/16 11:05:26;;;;;;;3.30;1.65;;;21.90;99.90;;;;;;4857825;29;20191;-88
2022/10/16 11:08:00;;;;;;;2.35;1.50;;;22.30;99.90;;;;;;4857858;29;20208;-87
2022/10/16 11:10:45;;;;;;;2.58;1.42;;;22.40;99.90;;;;;;4857400;29;20233;-88
2022/10/16 11:13:26;;;;;;;4.40;1.50;;;22.40;99.90;;;;;;4856733;29;20204;-88
2022/10/16 11:15:55;;;;;;;2.50;1.50;;;22.70;99.90;;;;;;4851301;29;20585;-89
2022/10/16 11:18:30;;;;;;;1.48;1.30;;;22.80;99.90;;;;;;4858127;29;20188;-89
2022/10/16 11:21:05;;;;;;;3.35;1.35;;;22.90;99.90;;;;;;4858423;29;20275;-80
2022/10/16 11:23:59;;;;;;;1.45;1.10;;;22.90;99.90;;;;;;4852932;29;20176;-81
2022/10/16 11:26:30;;;;;;;2.28;1.40;;;22.90;99.90;;;;;;4860061;29;20184;-87
2022/10/16 11:28:59;;;;;;;1.40;1.00;;;22.90;99.90;;;;;;4848407;29;20181;-86
2022/10/16 11:31:38;;;;;;;1.38;1.25;;;22.90;99.90;;;;;;4851536;29;20189;-87
2022/10/16 11:34:27;;;;;;;3.53;1.10;;;23.00;99.90;;;;;;4858525;29;20192;-87
2022/10/16 11:37:14;;;;;;;1.65;1.30;;;23.00;99.90;;;;;;4859454;29;20204;-87
2022/10/16 11:39:47;;;;;;;1.33;1.23;;;23.10;99.90;;;;;;4860413;29;20177;-88
2022/10/16 11:42:27;;;;;;;2.63;1.38;;;23.10;99.90;;;;;;4860934;29;20236;-88
2022/10/16 11:44:57;;;;;;;1.42;1.30;;;23.20;99.90;;;;;;4860181;29;20271;-88
2022/10/16 11:47:36;;;;;;;1.45;1.35;;;23.30;99.90;;;;;;4854431;29;20185;-92
2022/10/16 11:50:24;;;;;;;3.78;1.27;;;23.40;99.90;;;;;;4860779;29;20185;-88
2022/10/16 11:53:21;;;;;;;2.42;1.40;;;23.40;99.90;;;;;;4854135;29;20384;-87
2022/10/16 11:55:51;;;;;;;2.03;1.30;;;23.50;99.90;;;;;;4861424;29;20269;-87
2022/10/16 11:58:34;;;;;;;1.63;1.42;;;23.60;99.90;;;;;;4847837;29;20210;-88
2022/10/16 12:01:41;;;;;;;2.05;1.55;;;23.60;99.90;;;;;;4858316;29;20186;-87
2022/10/16 12:04:33;;;;;;;2.78;2.00;;;23.60;99.90;;;;;;4844137;29;20195;-87
2022/10/16 12:07:10;;;;;;;5.13;2.10;;;23.60;99.90;;;;;;4851930;29;20213;-86
2022/10/16 12:09:42;;;;;;;3.22;1.52;;;23.60;99.90;;;;;;4862008;29;20196;-89
2022/10/16 12:12:38;;;;;;;2.33;1.23;;;23.70;99.90;;;;;;4862063;29;20212;-89
2022/10/16 12:15:26;;;;;;;3.40;1.55;;;23.80;99.90;;;;;;4862373;29;20233;-89
2022/10/16 12:17:52;;;;;;;1.38;1.20;;;23.90;99.90;;;;;;4861932;29;20192;-89
2022/10/16 12:20:58;;;;;;;1.88;1.33;;;23.90;99.90;;;;;;4861799;29;20196;-89
2022/10/16 12:23:25;;;;;;;1.67;1.40;;;23.90;99.90;;;;;;4862327;29;20207;-89
2022/10/16 12:25:57;;;;;;;3.13;1.58;;;23.90;99.90;;;;;;4861916;29;20271;-89
2022/10/16 12:28:27;;;;;;;1.73;1.38;;;24.10;99.90;;;;;;4861926;29;20292;-89
2022/10/16 12:31:03;;;;;;;1.73;1.52;;;24.40;99.90;;;;;;4861969;29;20177;-89
2022/10/16 12:33:56;;;;;;;1.85;1.50;;;24.50;99.90;;;;;;4861756;29;20228;-89
2022/10/16 12:36:48;;;;;;;2.28;1.55;;;24.70;99.90;;;;;;4861975;29;20212;-89
2022/10/16 12:39:24;;;;;;;1.63;1.38;;;24.80;99.90;;;;;;4845476;29;20243;-89
2022/10/16 12:42:06;;;;;;;1.83;1.45;;;24.80;99.90;;;;;;4861665;29;20677;-89
2022/10/16 12:44:34;;;;;;;2.55;1.45;;;24.80;99.90;;;;;;4861950;29;20176;-89
2022/10/16 12:47:00;;;;;;;1.67;1.58;;;24.90;99.90;;;;;;4861781;29;20185;-89
2022/10/16 12:49:38;;;;;;;1.60;1.50;;;24.90;99.90;;;;;;4861617;29;20193;-89
2022/10/16 12:52:05;;;;;;;3.53;1.60;;;24.80;99.90;;;;;;4861928;29;20205;-89
2022/10/16 12:54:35;;;;;;;2.35;1.80;;;24.70;99.90;;;;;;4861843;29;20216;-89
2022/10/16 12:57:10;;;;;;;3.55;1.70;;;24.80;99.90;;;;;;4861432;29;20211;-89
2022/10/16 13:00:03;;;;;;;1.55;1.45;;;24.80;99.90;;;;;;4861235;29;20672;-89
2022/10/16 13:03:02;;;;;;;3.20;1.73;;;24.90;99.90;;;;;;4861409;29;20261;-89
2022/10/16 13:05:51;;;;;;;3.08;2.10;;;24.80;99.90;;;;;;4861084;29;20238;-89
2022/10/16 13:08:43;;;;;;;2.80;1.60;;;24.70;99.90;;;;;;4860539;29;20794;-89
2022/10/16 13:11:15;;;;;;;3.45;1.67;;;24.50;99.90;;;;;;4844387;29;20196;-89
2022/10/16 13:13:56;;;;;;;2.78;1.73;;;24.30;99.90;;;;;;4860718;29;20188;-89